sensor_id;sensor_type;location;lat;lon;timestamp;P1;durP1;ratioP1;P2;durP2;ratioP2
32523;SDS011;18965;52.242;20.886;2023-02-28T00:00:24;235.32;;;103.22;;
32523;SDS011;18965;52.242;20.886;2023-02-28T00:02:50;230.10;;;117.40;;
32523;SDS011;18965;52.242;20.886;2023-02-28T00:05:17;254.95;;;99.65;;
32523;SDS011;18965;52.242;20.886;2023-02-28T00:07:44;277.05;;;225.52;;
32523;SDS011;18965;52.242;20.886;2023-02-28T00:10:12;298.25;;;161.95;;
32523;SDS011;18965;52.242;20.886;2023-02-28T00:12:40;410.67;;;366.23;;
32523;SDS011;18965;52.242;20.886;2023-02-28T00:15:07;653.95;;;600.22;;
32523;SDS011;18965;52.242;20.886;2023-02-28T00:17:34;448.10;;;399.98;;
32523;SDS011;18965;52.242;20.886;2023-02-28T00:20:00;398.70;;;360.13;;
32523;SDS011;18965;52.242;20.886;2023-02-28T00:22:40;232.52;;;113.22;;
32523;SDS011;18965;52.242;20.886;2023-02-28T00:25:08;273.10;;;159.77;;
32523;SDS011;18965;52.242;20.886;2023-02-28T00:27:35;228.95;;;104.57;;
32523;SDS011;18965;52.242;20.886;2023-02-28T00:30:02;206.07;;;82.60;;
32523;SDS011;18965;52.242;20.886;2023-02-28T00:32:28;219.90;;;118.30;;
32523;SDS011;18965;52.242;20.886;2023-02-28T00:34:54;208.25;;;102.00;;
32523;SDS011;18965;52.242;20.886;2023-02-28T00:37:20;212.80;;;98.70;;
32523;SDS011;18965;52.242;20.886;2023-02-28T00:39:46;211.55;;;96.00;;
32523;SDS011;18965;52.242;20.886;2023-02-28T00:42:12;222.93;;;132.45;;
32523;SDS011;18965;52.242;20.886;2023-02-28T00:44:38;213.10;;;101.50;;
32523;SDS011;18965;52.242;20.886;2023-02-28T00:47:04;239.07;;;126.53;;
32523;SDS011;18965;52.242;20.886;2023-02-28T00:49:29;190.55;;;73.85;;
32523;SDS011;18965;52.242;20.886;2023-02-28T00:51:55;191.50;;;77.28;;
32523;SDS011;18965;52.242;20.886;2023-02-28T00:54:21;195.82;;;79.40;;
32523;SDS011;18965;52.242;20.886;2023-02-28T00:56:48;219.50;;;80.25;;
32523;SDS011;18965;52.242;20.886;2023-02-28T00:59:14;245.55;;;116.35;;
32523;SDS011;18965;52.242;20.886;2023-02-28T01:01:42;208.95;;;87.35;;
32523;SDS011;18965;52.242;20.886;2023-02-28T01:04:09;204.77;;;77.65;;
32523;SDS011;18965;52.242;20.886;2023-02-28T01:06:35;193.60;;;85.85;;
32523;SDS011;18965;52.242;20.886;2023-02-28T01:09:01;236.35;;;101.22;;
32523;SDS011;18965;52.242;20.886;2023-02-28T01:11:27;227.88;;;86.82;;
32523;SDS011;18965;52.242;20.886;2023-02-28T01:13:53;247.88;;;164.32;;
32523;SDS011;18965;52.242;20.886;2023-02-28T01:16:19;248.23;;;166.00;;
32523;SDS011;18965;52.242;20.886;2023-02-28T01:18:45;230.95;;;90.10;;
32523;SDS011;18965;52.242;20.886;2023-02-28T01:21:12;259.65;;;147.45;;
32523;SDS011;18965;52.242;20.886;2023-02-28T01:23:40;201.95;;;86.88;;
32523;SDS011;18965;52.242;20.886;2023-02-28T01:26:08;216.38;;;99.25;;
32523;SDS011;18965;52.242;20.886;2023-02-28T01:28:35;195.23;;;79.55;;
32523;SDS011;18965;52.242;20.886;2023-02-28T01:31:01;257.55;;;151.10;;
32523;SDS011;18965;52.242;20.886;2023-02-28T01:33:27;238.57;;;89.10;;
32523;SDS011;18965;52.242;20.886;2023-02-28T01:36:09;264.38;;;165.38;;
32523;SDS011;18965;52.242;20.886;2023-02-28T01:38:37;267.27;;;201.52;;
32523;SDS011;18965;52.242;20.886;2023-02-28T01:41:03;249.40;;;125.20;;
32523;SDS011;18965;52.242;20.886;2023-02-28T01:43:52;197.35;;;88.38;;
32523;SDS011;18965;52.242;20.886;2023-02-28T01:46:18;226.52;;;79.18;;
32523;SDS011;18965;52.242;20.886;2023-02-28T01:49:04;226.75;;;79.15;;
32523;SDS011;18965;52.242;20.886;2023-02-28T01:51:41;188.10;;;75.10;;
32523;SDS011;18965;52.242;20.886;2023-02-28T01:54:12;199.65;;;98.45;;
32523;SDS011;18965;52.242;20.886;2023-02-28T01:57:15;257.63;;;120.10;;
32523;SDS011;18965;52.242;20.886;2023-02-28T01:59:40;254.68;;;177.90;;
32523;SDS011;18965;52.242;20.886;2023-02-28T02:02:14;199.18;;;100.82;;
32523;SDS011;18965;52.242;20.886;2023-02-28T02:04:42;226.07;;;115.18;;
32523;SDS011;18965;52.242;20.886;2023-02-28T02:10:03;233.82;;;121.40;;
32523;SDS011;18965;52.242;20.886;2023-02-28T02:15:32;271.27;;;180.13;;
32523;SDS011;18965;52.242;20.886;2023-02-28T02:18:04;247.25;;;162.90;;
32523;SDS011;18965;52.242;20.886;2023-02-28T02:43:51;211.35;;;87.32;;
32523;SDS011;18965;52.242;20.886;2023-02-28T02:46:26;231.45;;;112.28;;
32523;SDS011;18965;52.242;20.886;2023-02-28T02:48:57;271.30;;;192.30;;
32523;SDS011;18965;52.242;20.886;2023-02-28T02:51:27;327.67;;;291.63;;
32523;SDS011;18965;52.242;20.886;2023-02-28T02:54:00;222.93;;;105.65;;
32523;SDS011;18965;52.242;20.886;2023-02-28T02:56:33;235.60;;;129.10;;
32523;SDS011;18965;52.242;20.886;2023-02-28T02:59:02;249.95;;;148.38;;
32523;SDS011;18965;52.242;20.886;2023-02-28T03:03:57;210.63;;;105.20;;
32523;SDS011;18965;52.242;20.886;2023-02-28T03:06:25;207.57;;;94.53;;
32523;SDS011;18965;52.242;20.886;2023-02-28T03:08:51;215.40;;;93.43;;
32523;SDS011;18965;52.242;20.886;2023-02-28T03:11:17;219.30;;;85.78;;
32523;SDS011;18965;52.242;20.886;2023-02-28T03:25:01;186.65;;;76.70;;
32523;SDS011;18965;52.242;20.886;2023-02-28T03:27:41;186.40;;;76.03;;
32523;SDS011;18965;52.242;20.886;2023-02-28T03:33:03;195.23;;;77.03;;
32523;SDS011;18965;52.242;20.886;2023-02-28T03:35:47;205.23;;;79.40;;
32523;SDS011;18965;52.242;20.886;2023-02-28T03:41:02;194.63;;;76.85;;
32523;SDS011;18965;52.242;20.886;2023-02-28T03:43:38;207.80;;;77.97;;
32523;SDS011;18965;52.242;20.886;2023-02-28T03:46:08;188.52;;;73.97;;
32523;SDS011;18965;52.242;20.886;2023-02-28T03:48:42;204.55;;;77.22;;
32523;SDS011;18965;52.242;20.886;2023-02-28T03:51:13;182.57;;;74.88;;
32523;SDS011;18965;52.242;20.886;2023-02-28T03:53:44;192.30;;;75.53;;
32523;SDS011;18965;52.242;20.886;2023-02-28T03:56:20;191.73;;;78.38;;
32523;SDS011;18965;52.242;20.886;2023-02-28T03:58:54;201.23;;;79.72;;
32523;SDS011;18965;52.242;20.886;2023-02-28T04:01:36;202.07;;;80.28;;
32523;SDS011;18965;52.242;20.886;2023-02-28T04:04:06;228.80;;;84.72;;
32523;SDS011;18965;52.242;20.886;2023-02-28T04:09:03;231.68;;;87.57;;
32523;SDS011;18965;52.242;20.886;2023-02-28T04:11:32;223.25;;;85.65;;
32523;SDS011;18965;52.242;20.886;2023-02-28T04:14:00;245.05;;;91.60;;
32523;SDS011;18965;52.242;20.886;2023-02-28T04:16:31;254.00;;;96.65;;
32523;SDS011;18965;52.242;20.886;2023-02-28T04:18:57;261.98;;;97.97;;
32523;SDS011;18965;52.242;20.886;2023-02-28T04:24:25;276.63;;;101.80;;
32523;SDS011;18965;52.242;20.886;2023-02-28T04:26:54;270.38;;;104.35;;
32523;SDS011;18965;52.242;20.886;2023-02-28T04:29:24;263.13;;;102.63;;
32523;SDS011;18965;52.242;20.886;2023-02-28T04:31:52;261.95;;;101.22;;
32523;SDS011;18965;52.242;20.886;2023-02-28T04:34:18;249.45;;;98.10;;
32523;SDS011;18965;52.242;20.886;2023-02-28T04:36:46;262.80;;;99.90;;
32523;SDS011;18965;52.242;20.886;2023-02-28T04:39:18;263.10;;;97.50;;
32523;SDS011;18965;52.242;20.886;2023-02-28T04:41:45;246.10;;;95.47;;
32523;SDS011;18965;52.242;20.886;2023-02-28T04:44:11;255.50;;;99.35;;
32523;SDS011;18965;52.242;20.886;2023-02-28T04:46:37;232.55;;;90.13;;
32523;SDS011;18965;52.242;20.886;2023-02-28T04:49:03;230.15;;;91.47;;
32523;SDS011;18965;52.242;20.886;2023-02-28T04:51:28;249.88;;;93.65;;
32523;SDS011;18965;52.242;20.886;2023-02-28T04:53:55;216.75;;;87.30;;
32523;SDS011;18965;52.242;20.886;2023-02-28T04:56:21;211.40;;;84.90;;
32523;SDS011;18965;52.242;20.886;2023-02-28T04:58:47;207.18;;;82.30;;
32523;SDS011;18965;52.242;20.886;2023-02-28T05:01:17;205.38;;;81.30;;
32523;SDS011;18965;52.242;20.886;2023-02-28T05:03:47;200.27;;;80.03;;
32523;SDS011;18965;52.242;20.886;2023-02-28T05:06:14;202.38;;;81.40;;
32523;SDS011;18965;52.242;20.886;2023-02-28T05:08:40;209.07;;;81.50;;
32523;SDS011;18965;52.242;20.886;2023-02-28T05:11:07;217.18;;;82.28;;
32523;SDS011;18965;52.242;20.886;2023-02-28T05:13:40;202.50;;;80.70;;
32523;SDS011;18965;52.242;20.886;2023-02-28T05:16:06;202.27;;;81.28;;
32523;SDS011;18965;52.242;20.886;2023-02-28T05:18:32;200.05;;;79.10;;
32523;SDS011;18965;52.242;20.886;2023-02-28T05:20:58;204.30;;;79.15;;
32523;SDS011;18965;52.242;20.886;2023-02-28T05:23:27;212.65;;;81.03;;
32523;SDS011;18965;52.242;20.886;2023-02-28T05:25:53;193.80;;;77.35;;
32523;SDS011;18965;52.242;20.886;2023-02-28T05:28:19;192.85;;;76.97;;
32523;SDS011;18965;52.242;20.886;2023-02-28T05:30:45;198.30;;;78.65;;
32523;SDS011;18965;52.242;20.886;2023-02-28T05:33:11;193.07;;;77.45;;
32523;SDS011;18965;52.242;20.886;2023-02-28T05:35:38;192.38;;;77.13;;
32523;SDS011;18965;52.242;20.886;2023-02-28T05:38:04;188.25;;;75.07;;
32523;SDS011;18965;52.242;20.886;2023-02-28T05:40:30;191.95;;;75.82;;
32523;SDS011;18965;52.242;20.886;2023-02-28T05:42:55;207.40;;;79.15;;
32523;SDS011;18965;52.242;20.886;2023-02-28T05:45:21;212.88;;;79.75;;
32523;SDS011;18965;52.242;20.886;2023-02-28T05:47:47;196.50;;;77.25;;
32523;SDS011;18965;52.242;20.886;2023-02-28T05:50:12;235.95;;;82.90;;
32523;SDS011;18965;52.242;20.886;2023-02-28T05:52:38;211.18;;;79.65;;
32523;SDS011;18965;52.242;20.886;2023-02-28T05:55:04;235.75;;;81.97;;
32523;SDS011;18965;52.242;20.886;2023-02-28T05:57:30;195.68;;;77.80;;
32523;SDS011;18965;52.242;20.886;2023-02-28T05:59:55;190.75;;;77.50;;
32523;SDS011;18965;52.242;20.886;2023-02-28T06:02:21;201.48;;;78.30;;
32523;SDS011;18965;52.242;20.886;2023-02-28T06:04:47;200.80;;;79.35;;
32523;SDS011;18965;52.242;20.886;2023-02-28T06:07:13;226.43;;;83.88;;
32523;SDS011;18965;52.242;20.886;2023-02-28T06:09:38;196.93;;;79.72;;
32523;SDS011;18965;52.242;20.886;2023-02-28T06:12:05;202.88;;;78.43;;
32523;SDS011;18965;52.242;20.886;2023-02-28T06:14:33;219.32;;;82.93;;
32523;SDS011;18965;52.242;20.886;2023-02-28T06:16:59;205.73;;;79.30;;
32523;SDS011;18965;52.242;20.886;2023-02-28T06:19:26;197.32;;;78.72;;
32523;SDS011;18965;52.242;20.886;2023-02-28T06:21:52;247.30;;;84.88;;
32523;SDS011;18965;52.242;20.886;2023-02-28T06:24:21;225.80;;;81.70;;
32523;SDS011;18965;52.242;20.886;2023-02-28T06:26:48;147.43;;;100.85;;
32523;SDS011;18965;52.242;20.886;2023-02-28T06:29:14;204.48;;;111.85;;
32523;SDS011;18965;52.242;20.886;2023-02-28T06:31:43;220.57;;;81.13;;
32523;SDS011;18965;52.242;20.886;2023-02-28T06:34:10;199.68;;;82.72;;
32523;SDS011;18965;52.242;20.886;2023-02-28T06:36:40;238.82;;;81.60;;
32523;SDS011;18965;52.242;20.886;2023-02-28T06:39:06;226.20;;;82.80;;
32523;SDS011;18965;52.242;20.886;2023-02-28T06:41:34;186.55;;;106.43;;
32523;SDS011;18965;52.242;20.886;2023-02-28T06:44:16;184.00;;;100.03;;
32523;SDS011;18965;52.242;20.886;2023-02-28T06:46:42;131.80;;;107.72;;
32523;SDS011;18965;52.242;20.886;2023-02-28T06:49:09;148.68;;;125.28;;
32523;SDS011;18965;52.242;20.886;2023-02-28T06:51:36;163.13;;;99.68;;
32523;SDS011;18965;52.242;20.886;2023-02-28T06:54:03;77.63;;;70.85;;
32523;SDS011;18965;52.242;20.886;2023-02-28T06:56:29;111.90;;;73.05;;
32523;SDS011;18965;52.242;20.886;2023-02-28T06:58:54;161.38;;;131.82;;
32523;SDS011;18965;52.242;20.886;2023-02-28T07:01:21;88.28;;;71.10;;
32523;SDS011;18965;52.242;20.886;2023-02-28T07:03:48;181.60;;;103.40;;
32523;SDS011;18965;52.242;20.886;2023-02-28T07:06:17;72.55;;;65.60;;
32523;SDS011;18965;52.242;20.886;2023-02-28T07:08:49;135.38;;;107.55;;
32523;SDS011;18965;52.242;20.886;2023-02-28T07:11:17;135.48;;;116.97;;
32523;SDS011;18965;52.242;20.886;2023-02-28T07:13:42;210.15;;;78.45;;
32523;SDS011;18965;52.242;20.886;2023-02-28T07:16:09;242.23;;;91.68;;
32523;SDS011;18965;52.242;20.886;2023-02-28T07:18:36;232.00;;;145.05;;
32523;SDS011;18965;52.242;20.886;2023-02-28T07:21:03;67.78;;;61.35;;
32523;SDS011;18965;52.242;20.886;2023-02-28T07:23:30;65.82;;;59.20;;
32523;SDS011;18965;52.242;20.886;2023-02-28T07:25:56;47.38;;;41.10;;
32523;SDS011;18965;52.242;20.886;2023-02-28T07:28:22;158.93;;;130.50;;
32523;SDS011;18965;52.242;20.886;2023-02-28T07:30:48;165.10;;;130.38;;
32523;SDS011;18965;52.242;20.886;2023-02-28T07:33:14;66.57;;;60.30;;
32523;SDS011;18965;52.242;20.886;2023-02-28T07:35:39;79.65;;;70.13;;
32523;SDS011;18965;52.242;20.886;2023-02-28T07:38:05;38.40;;;34.35;;
32523;SDS011;18965;52.242;20.886;2023-02-28T07:40:33;43.55;;;35.53;;
32523;SDS011;18965;52.242;20.886;2023-02-28T07:42:59;92.18;;;46.33;;
32523;SDS011;18965;52.242;20.886;2023-02-28T07:45:26;122.47;;;101.18;;
32523;SDS011;18965;52.242;20.886;2023-02-28T07:47:53;116.22;;;103.72;;
32523;SDS011;18965;52.242;20.886;2023-02-28T07:50:20;52.65;;;47.08;;
32523;SDS011;18965;52.242;20.886;2023-02-28T07:52:46;179.82;;;105.18;;
32523;SDS011;18965;52.242;20.886;2023-02-28T07:55:11;82.40;;;53.92;;
32523;SDS011;18965;52.242;20.886;2023-02-28T07:57:38;74.30;;;63.60;;
32523;SDS011;18965;52.242;20.886;2023-02-28T08:00:06;173.98;;;74.03;;
32523;SDS011;18965;52.242;20.886;2023-02-28T08:02:34;113.20;;;64.30;;
32523;SDS011;18965;52.242;20.886;2023-02-28T08:05:00;76.57;;;69.32;;
32523;SDS011;18965;52.242;20.886;2023-02-28T08:07:26;112.05;;;101.95;;
32523;SDS011;18965;52.242;20.886;2023-02-28T08:09:52;133.10;;;120.03;;
32523;SDS011;18965;52.242;20.886;2023-02-28T08:12:18;175.90;;;107.63;;
32523;SDS011;18965;52.242;20.886;2023-02-28T08:14:43;239.70;;;112.50;;
32523;SDS011;18965;52.242;20.886;2023-02-28T08:17:09;286.40;;;182.52;;
32523;SDS011;18965;52.242;20.886;2023-02-28T08:19:36;216.13;;;81.55;;
32523;SDS011;18965;52.242;20.886;2023-02-28T08:22:02;207.32;;;77.30;;
32523;SDS011;18965;52.242;20.886;2023-02-28T08:24:27;231.45;;;81.32;;
32523;SDS011;18965;52.242;20.886;2023-02-28T08:26:54;227.43;;;80.13;;
32523;SDS011;18965;52.242;20.886;2023-02-28T08:29:20;205.32;;;79.00;;
32523;SDS011;18965;52.242;20.886;2023-02-28T08:31:45;238.05;;;120.57;;
32523;SDS011;18965;52.242;20.886;2023-02-28T08:34:12;253.18;;;95.55;;
32523;SDS011;18965;52.242;20.886;2023-02-28T08:36:39;219.27;;;78.82;;
32523;SDS011;18965;52.242;20.886;2023-02-28T08:39:05;240.25;;;98.38;;
32523;SDS011;18965;52.242;20.886;2023-02-28T08:41:31;230.65;;;93.53;;
32523;SDS011;18965;52.242;20.886;2023-02-28T08:43:58;252.23;;;133.18;;
32523;SDS011;18965;52.242;20.886;2023-02-28T08:46:24;234.60;;;101.55;;
32523;SDS011;18965;52.242;20.886;2023-02-28T08:48:52;286.45;;;118.82;;
32523;SDS011;18965;52.242;20.886;2023-02-28T08:51:19;257.58;;;117.18;;
32523;SDS011;18965;52.242;20.886;2023-02-28T08:53:54;222.60;;;90.00;;
32523;SDS011;18965;52.242;20.886;2023-02-28T08:56:22;243.70;;;89.45;;
32523;SDS011;18965;52.242;20.886;2023-02-28T08:58:49;241.48;;;102.20;;
32523;SDS011;18965;52.242;20.886;2023-02-28T09:01:16;268.50;;;154.95;;
32523;SDS011;18965;52.242;20.886;2023-02-28T09:03:42;250.38;;;89.72;;
32523;SDS011;18965;52.242;20.886;2023-02-28T09:06:09;250.13;;;114.88;;
32523;SDS011;18965;52.242;20.886;2023-02-28T09:08:36;259.00;;;107.53;;
32523;SDS011;18965;52.242;20.886;2023-02-28T09:11:02;312.95;;;213.30;;
32523;SDS011;18965;52.242;20.886;2023-02-28T09:13:28;306.27;;;231.50;;
32523;SDS011;18965;52.242;20.886;2023-02-28T09:15:56;254.30;;;113.47;;
32523;SDS011;18965;52.242;20.886;2023-02-28T09:18:24;261.02;;;101.97;;
32523;SDS011;18965;52.242;20.886;2023-02-28T09:20:50;244.52;;;105.05;;
32523;SDS011;18965;52.242;20.886;2023-02-28T09:23:16;248.27;;;121.07;;
32523;SDS011;18965;52.242;20.886;2023-02-28T09:25:48;252.18;;;105.28;;
32523;SDS011;18965;52.242;20.886;2023-02-28T09:28:16;251.52;;;107.50;;
32523;SDS011;18965;52.242;20.886;2023-02-28T09:30:43;247.95;;;99.55;;
32523;SDS011;18965;52.242;20.886;2023-02-28T09:33:10;247.55;;;104.05;;
32523;SDS011;18965;52.242;20.886;2023-02-28T09:35:37;277.13;;;108.32;;
32523;SDS011;18965;52.242;20.886;2023-02-28T09:38:03;351.33;;;225.18;;
32523;SDS011;18965;52.242;20.886;2023-02-28T09:40:30;245.27;;;121.97;;
32523;SDS011;18965;52.242;20.886;2023-02-28T09:42:56;298.88;;;216.73;;
32523;SDS011;18965;52.242;20.886;2023-02-28T09:45:35;263.92;;;115.82;;
32523;SDS011;18965;52.242;20.886;2023-02-28T09:48:14;229.48;;;96.10;;
32523;SDS011;18965;52.242;20.886;2023-02-28T09:50:44;272.38;;;126.72;;
32523;SDS011;18965;52.242;20.886;2023-02-28T09:53:33;227.55;;;89.28;;
32523;SDS011;18965;52.242;20.886;2023-02-28T09:59:11;235.38;;;100.28;;
32523;SDS011;18965;52.242;20.886;2023-02-28T10:01:52;226.90;;;89.47;;
32523;SDS011;18965;52.242;20.886;2023-02-28T10:07:24;275.17;;;155.18;;
32523;SDS011;18965;52.242;20.886;2023-02-28T10:09:54;288.23;;;152.73;;
32523;SDS011;18965;52.242;20.886;2023-02-28T10:12:21;281.13;;;154.05;;
32523;SDS011;18965;52.242;20.886;2023-02-28T10:14:47;261.38;;;127.43;;
32523;SDS011;18965;52.242;20.886;2023-02-28T10:17:21;296.05;;;165.02;;
32523;SDS011;18965;52.242;20.886;2023-02-28T10:20:07;267.38;;;126.70;;
32523;SDS011;18965;52.242;20.886;2023-02-28T10:22:50;269.23;;;140.23;;
32523;SDS011;18965;52.242;20.886;2023-02-28T10:25:21;354.00;;;249.05;;
32523;SDS011;18965;52.242;20.886;2023-02-28T10:28:07;353.75;;;306.83;;
32523;SDS011;18965;52.242;20.886;2023-02-28T10:30:39;266.58;;;123.22;;
32523;SDS011;18965;52.242;20.886;2023-02-28T10:33:19;266.85;;;113.32;;
32523;SDS011;18965;52.242;20.886;2023-02-28T10:35:53;329.77;;;178.40;;
32523;SDS011;18965;52.242;20.886;2023-02-28T10:38:27;245.93;;;90.43;;
32523;SDS011;18965;52.242;20.886;2023-02-28T10:41:07;271.08;;;152.07;;
32523;SDS011;18965;52.242;20.886;2023-02-28T10:43:38;233.60;;;97.32;;
32523;SDS011;18965;52.242;20.886;2023-02-28T10:46:11;248.70;;;99.15;;
32523;SDS011;18965;52.242;20.886;2023-02-28T10:48:57;287.08;;;150.75;;
32523;SDS011;18965;52.242;20.886;2023-02-28T10:51:38;225.52;;;98.40;;
32523;SDS011;18965;52.242;20.886;2023-02-28T10:54:05;247.48;;;108.43;;
32523;SDS011;18965;52.242;20.886;2023-02-28T10:56:39;275.90;;;160.38;;
32523;SDS011;18965;52.242;20.886;2023-02-28T11:06:44;302.92;;;206.07;;
32523;SDS011;18965;52.242;20.886;2023-02-28T11:09:19;302.10;;;159.30;;
32523;SDS011;18965;52.242;20.886;2023-02-28T11:11:51;342.05;;;243.52;;
32523;SDS011;18965;52.242;20.886;2023-02-28T11:14:21;246.90;;;105.03;;
32523;SDS011;18965;52.242;20.886;2023-02-28T11:16:50;315.73;;;226.32;;
32523;SDS011;18965;52.242;20.886;2023-02-28T11:19:22;338.70;;;272.42;;
32523;SDS011;18965;52.242;20.886;2023-02-28T11:21:57;256.45;;;130.40;;
32523;SDS011;18965;52.242;20.886;2023-02-28T11:24:33;275.95;;;127.07;;
32523;SDS011;18965;52.242;20.886;2023-02-28T11:29:31;242.48;;;105.85;;
32523;SDS011;18965;52.242;20.886;2023-02-28T11:34:27;254.93;;;122.15;;
32523;SDS011;18965;52.242;20.886;2023-02-28T11:36:54;268.13;;;127.90;;
32523;SDS011;18965;52.242;20.886;2023-02-28T11:39:21;280.92;;;148.65;;
32523;SDS011;18965;52.242;20.886;2023-02-28T11:58:26;253.25;;;96.20;;
32523;SDS011;18965;52.242;20.886;2023-02-28T12:01:28;255.93;;;106.30;;
32523;SDS011;18965;52.242;20.886;2023-02-28T12:06:50;272.83;;;130.23;;
32523;SDS011;18965;52.242;20.886;2023-02-28T12:10:10;279.70;;;150.23;;
32523;SDS011;18965;52.242;20.886;2023-02-28T12:12:21;288.02;;;158.90;;
32523;SDS011;18965;52.242;20.886;2023-02-28T12:17:42;284.10;;;137.38;;
32523;SDS011;18965;52.242;20.886;2023-02-28T12:20:25;303.83;;;172.52;;
32523;SDS011;18965;52.242;20.886;2023-02-28T12:23:19;276.55;;;150.88;;
32523;SDS011;18965;52.242;20.886;2023-02-28T12:28:44;283.88;;;139.50;;
32523;SDS011;18965;52.242;20.886;2023-02-28T12:31:17;276.75;;;139.95;;
32523;SDS011;18965;52.242;20.886;2023-02-28T12:34:02;297.23;;;163.32;;
32523;SDS011;18965;52.242;20.886;2023-02-28T12:36:31;238.25;;;83.20;;
32523;SDS011;18965;52.242;20.886;2023-02-28T12:39:02;325.40;;;263.90;;
32523;SDS011;18965;52.242;20.886;2023-02-28T12:44:12;252.02;;;112.55;;
32523;SDS011;18965;52.242;20.886;2023-02-28T12:46:44;261.00;;;101.93;;
32523;SDS011;18965;52.242;20.886;2023-02-28T12:49:19;272.13;;;121.75;;
32523;SDS011;18965;52.242;20.886;2023-02-28T12:51:50;257.65;;;95.53;;
32523;SDS011;18965;52.242;20.886;2023-02-28T12:54:25;286.33;;;114.00;;
32523;SDS011;18965;52.242;20.886;2023-02-28T13:10:45;249.35;;;96.95;;
32523;SDS011;18965;52.242;20.886;2023-02-28T13:13:18;280.95;;;115.22;;
32523;SDS011;18965;52.242;20.886;2023-02-28T13:21:05;258.08;;;107.18;;
32523;SDS011;18965;52.242;20.886;2023-02-28T13:31:26;265.40;;;118.63;;
32523;SDS011;18965;52.242;20.886;2023-02-28T13:36:30;253.15;;;101.25;;
32523;SDS011;18965;52.242;20.886;2023-02-28T13:39:00;266.95;;;129.60;;
32523;SDS011;18965;52.242;20.886;2023-02-28T13:41:45;249.73;;;93.47;;
32523;SDS011;18965;52.242;20.886;2023-02-28T13:44:13;297.75;;;114.10;;
32523;SDS011;18965;52.242;20.886;2023-02-28T13:57:18;263.85;;;107.25;;
32523;SDS011;18965;52.242;20.886;2023-02-28T14:00:16;260.92;;;111.57;;
32523;SDS011;18965;52.242;20.886;2023-02-28T14:05:17;296.02;;;117.53;;
32523;SDS011;18965;52.242;20.886;2023-02-28T14:07:50;269.70;;;105.13;;
32523;SDS011;18965;52.242;20.886;2023-02-28T14:10:43;253.90;;;110.75;;
32523;SDS011;18965;52.242;20.886;2023-02-28T14:16:09;258.63;;;103.35;;
32523;SDS011;18965;52.242;20.886;2023-02-28T14:18:37;272.88;;;105.65;;
32523;SDS011;18965;52.242;20.886;2023-02-28T14:29:56;237.48;;;87.20;;
32523;SDS011;18965;52.242;20.886;2023-02-28T14:33:01;247.27;;;85.60;;
32523;SDS011;18965;52.242;20.886;2023-02-28T14:38:27;255.23;;;87.03;;
32523;SDS011;18965;52.242;20.886;2023-02-28T14:40:57;240.52;;;85.03;;
32523;SDS011;18965;52.242;20.886;2023-02-28T14:43:27;348.73;;;194.75;;
32523;SDS011;18965;52.242;20.886;2023-02-28T14:45:57;301.58;;;172.50;;
32523;SDS011;18965;52.242;20.886;2023-02-28T14:48:25;329.13;;;193.43;;
32523;SDS011;18965;52.242;20.886;2023-02-28T14:50:56;318.23;;;145.80;;
32523;SDS011;18965;52.242;20.886;2023-02-28T14:53:25;303.00;;;154.27;;
32523;SDS011;18965;52.242;20.886;2023-02-28T14:55:53;302.17;;;132.55;;
32523;SDS011;18965;52.242;20.886;2023-02-28T14:58:32;280.50;;;104.47;;
32523;SDS011;18965;52.242;20.886;2023-02-28T15:00:59;324.20;;;219.52;;
32523;SDS011;18965;52.242;20.886;2023-02-28T15:03:31;267.23;;;179.63;;
32523;SDS011;18965;52.242;20.886;2023-02-28T15:06:02;357.48;;;194.85;;
32523;SDS011;18965;52.242;20.886;2023-02-28T15:08:28;260.55;;;111.28;;
32523;SDS011;18965;52.242;20.886;2023-02-28T15:11:00;243.18;;;88.18;;
32523;SDS011;18965;52.242;20.886;2023-02-28T15:14:00;285.80;;;157.80;;
32523;SDS011;18965;52.242;20.886;2023-02-28T15:19:05;223.47;;;134.90;;
32523;SDS011;18965;52.242;20.886;2023-02-28T15:21:33;284.75;;;131.25;;
32523;SDS011;18965;52.242;20.886;2023-02-28T15:26:50;257.83;;;90.55;;
32523;SDS011;18965;52.242;20.886;2023-02-28T15:29:23;243.02;;;80.65;;
32523;SDS011;18965;52.242;20.886;2023-02-28T15:31:50;249.90;;;88.35;;
32523;SDS011;18965;52.242;20.886;2023-02-28T15:34:39;240.57;;;91.93;;
32523;SDS011;18965;52.242;20.886;2023-02-28T15:37:07;237.82;;;82.20;;
32523;SDS011;18965;52.242;20.886;2023-02-28T15:39:50;248.50;;;83.07;;
32523;SDS011;18965;52.242;20.886;2023-02-28T15:42:21;258.58;;;85.40;;
32523;SDS011;18965;52.242;20.886;2023-02-28T15:44:47;246.32;;;85.45;;
32523;SDS011;18965;52.242;20.886;2023-02-28T15:49:47;262.70;;;85.10;;
32523;SDS011;18965;52.242;20.886;2023-02-28T15:52:18;234.45;;;87.20;;
32523;SDS011;18965;52.242;20.886;2023-02-28T15:54:58;230.85;;;81.60;;
32523;SDS011;18965;52.242;20.886;2023-02-28T15:57:25;245.30;;;83.18;;
32523;SDS011;18965;52.242;20.886;2023-02-28T15:59:53;238.27;;;82.85;;
32523;SDS011;18965;52.242;20.886;2023-02-28T16:02:20;239.57;;;82.50;;
32523;SDS011;18965;52.242;20.886;2023-02-28T16:04:55;265.17;;;135.82;;
32523;SDS011;18965;52.242;20.886;2023-02-28T16:07:21;239.10;;;83.88;;
32523;SDS011;18965;52.242;20.886;2023-02-28T16:09:49;245.23;;;82.30;;
32523;SDS011;18965;52.242;20.886;2023-02-28T16:12:15;217.55;;;78.93;;
32523;SDS011;18965;52.242;20.886;2023-02-28T16:14:41;230.52;;;83.53;;
32523;SDS011;18965;52.242;20.886;2023-02-28T16:17:12;234.23;;;81.63;;
32523;SDS011;18965;52.242;20.886;2023-02-28T16:19:42;241.50;;;84.88;;
32523;SDS011;18965;52.242;20.886;2023-02-28T16:22:08;354.80;;;107.95;;
32523;SDS011;18965;52.242;20.886;2023-02-28T16:24:35;242.15;;;85.50;;
32523;SDS011;18965;52.242;20.886;2023-02-28T16:27:01;235.15;;;84.80;;
32523;SDS011;18965;52.242;20.886;2023-02-28T16:29:32;238.63;;;85.15;;
32523;SDS011;18965;52.242;20.886;2023-02-28T16:31:59;242.98;;;88.25;;
32523;SDS011;18965;52.242;20.886;2023-02-28T16:34:26;237.43;;;82.63;;
32523;SDS011;18965;52.242;20.886;2023-02-28T16:36:52;237.52;;;82.80;;
32523;SDS011;18965;52.242;20.886;2023-02-28T16:39:18;229.98;;;82.95;;
32523;SDS011;18965;52.242;20.886;2023-02-28T16:41:47;249.63;;;86.50;;
32523;SDS011;18965;52.242;20.886;2023-02-28T16:44:33;231.30;;;84.03;;
32523;SDS011;18965;52.242;20.886;2023-02-28T16:47:00;237.52;;;84.38;;
32523;SDS011;18965;52.242;20.886;2023-02-28T16:49:27;230.48;;;83.55;;
32523;SDS011;18965;52.242;20.886;2023-02-28T16:51:53;235.93;;;82.82;;